createdAt,value
2022-10-04T00:00:13.197Z,1023.85
2022-10-04T00:01:13.568Z,1023.84
2022-10-04T00:02:13.540Z,1023.81
2022-10-04T00:03:13.688Z,1023.80
2022-10-04T00:04:13.791Z,1023.77
2022-10-04T00:05:13.870Z,1023.70
2022-10-04T00:06:14.112Z,1023.72
2022-10-04T00:07:13.070Z,1023.69
2022-10-04T00:08:13.152Z,1023.66
2022-10-04T00:09:13.347Z,1023.63
2022-10-04T00:10:13.823Z,1023.63
2022-10-04T00:11:13.936Z,1023.62
2022-10-04T00:12:13.421Z,1023.62
2022-10-04T00:13:13.292Z,1023.66
2022-10-04T00:14:13.415Z,1023.63
2022-10-04T00:15:13.263Z,1023.66
2022-10-04T00:16:13.513Z,1023.68
2022-10-04T00:17:13.634Z,1023.68
2022-10-04T00:18:13.985Z,1023.70
2022-10-04T00:19:13.304Z,1023.70
2022-10-04T00:20:13.478Z,1023.70
2022-10-04T00:21:13.480Z,1023.70
2022-10-04T00:22:13.737Z,1023.71
2022-10-04T00:23:13.600Z,1023.67
2022-10-04T00:24:13.577Z,1023.71
2022-10-04T00:25:13.515Z,1023.70
2022-10-04T00:26:13.762Z,1023.69
2022-10-04T00:27:13.862Z,1023.67
2022-10-04T00:28:14.392Z,1023.70
2022-10-04T00:29:13.405Z,1023.71
2022-10-04T00:30:13.391Z,1023.74
2022-10-04T00:31:13.636Z,1023.70
2022-10-04T00:32:13.734Z,1023.70
2022-10-04T00:33:13.616Z,1023.67
2022-10-04T00:34:13.523Z,1023.67
2022-10-04T00:35:13.479Z,1023.66
2022-10-04T00:36:13.440Z,1023.69
2022-10-04T00:37:13.371Z,1023.70
2022-10-04T00:38:13.453Z,1023.66
2022-10-04T00:39:16.279Z,1023.68
2022-10-04T00:40:13.153Z,1023.65
2022-10-04T00:41:13.103Z,1023.66
2022-10-04T00:42:13.176Z,1023.63
2022-10-04T00:43:13.333Z,1023.61
2022-10-04T00:44:14.012Z,1023.61
2022-10-04T00:45:13.101Z,1023.55
2022-10-04T00:46:13.355Z,1023.56
2022-10-04T00:47:13.586Z,1023.53
2022-10-04T00:48:13.969Z,1023.56
2022-10-04T00:49:13.173Z,1023.54
2022-10-04T00:50:13.063Z,1023.54
2022-10-04T00:51:12.946Z,1023.53
2022-10-04T00:52:13.113Z,1023.50
2022-10-04T00:53:13.209Z,1023.46
2022-10-04T00:54:13.166Z,1023.46
2022-10-04T00:55:13.267Z,1023.44
2022-10-04T00:56:13.090Z,1023.43
2022-10-04T00:57:13.086Z,1023.41
2022-10-04T00:58:13.025Z,1023.42
2022-10-04T00:59:12.909Z,1023.39
2022-10-04T01:00:12.976Z,1023.35
2022-10-04T01:01:12.962Z,1023.35
2022-10-04T01:02:13.129Z,1023.37
2022-10-04T01:03:13.506Z,1023.38
2022-10-04T01:04:13.440Z,1023.37
2022-10-04T01:05:13.320Z,1023.35
2022-10-04T01:06:13.277Z,1023.37
2022-10-04T01:07:13.230Z,1023.36
2022-10-04T01:08:13.378Z,1023.35
2022-10-04T01:09:13.403Z,1023.38
2022-10-04T01:10:13.725Z,1023.37
2022-10-04T01:11:13.801Z,1023.41
2022-10-04T01:12:14.007Z,1023.40
2022-10-04T01:13:13.196Z,1023.41
2022-10-04T01:14:13.175Z,1023.38
2022-10-04T01:15:13.102Z,1023.38
2022-10-04T01:16:13.063Z,1023.35
2022-10-04T01:17:13.154Z,1023.31
2022-10-04T01:18:13.162Z,1023.32
2022-10-04T01:19:13.025Z,1023.35
2022-10-04T01:20:12.909Z,1023.35
2022-10-04T01:21:12.751Z,1023.34
2022-10-04T01:22:13.558Z,1023.30
2022-10-04T01:23:13.843Z,1023.30
2022-10-04T01:24:13.885Z,1023.26
2022-10-04T01:25:13.854Z,1023.28
2022-10-04T01:26:13.933Z,1023.25
2022-10-04T01:27:17.988Z,1023.26
2022-10-04T01:28:12.995Z,1023.25
2022-10-04T01:29:13.188Z,1023.26
2022-10-04T01:30:13.118Z,1023.22
2022-10-04T01:31:13.317Z,1023.23
2022-10-04T01:32:13.372Z,1023.22
2022-10-04T01:33:13.312Z,1023.16
2022-10-04T01:34:13.387Z,1023.19
2022-10-04T01:35:13.292Z,1023.21
2022-10-04T01:36:13.183Z,1023.18
2022-10-04T01:37:13.116Z,1023.18
2022-10-04T01:38:12.981Z,1023.14
2022-10-04T01:39:13.275Z,1023.13
2022-10-04T01:40:13.586Z,1023.11
2022-10-04T01:41:13.476Z,1023.10
2022-10-04T01:42:13.469Z,1023.11
2022-10-04T01:43:13.441Z,1023.07
2022-10-04T01:44:13.272Z,1023.08
2022-10-04T01:45:13.249Z,1023.05
2022-10-04T01:46:13.318Z,1023.01
2022-10-04T01:47:13.627Z,1022.99
2022-10-04T01:48:13.724Z,1022.96
2022-10-04T01:49:13.844Z,1022.90
2022-10-04T01:50:15.876Z,1022.91
2022-10-04T01:51:13.026Z,1022.92
2022-10-04T01:52:13.001Z,1022.89
2022-10-04T01:53:13.204Z,1022.88
2022-10-04T01:54:13.326Z,1022.89
2022-10-04T01:55:13.497Z,1022.89
2022-10-04T01:56:13.727Z,1022.87
2022-10-04T01:57:13.767Z,1022.87
2022-10-04T01:58:14.088Z,1022.85
2022-10-04T01:59:13.135Z,1022.82
2022-10-04T02:00:12.983Z,1022.80
2022-10-04T02:01:12.981Z,1022.79
2022-10-04T02:02:12.910Z,1022.77
2022-10-04T02:03:12.760Z,1022.76
2022-10-04T02:04:16.280Z,1022.73
2022-10-04T02:05:14.977Z,1022.75
2022-10-04T02:06:13.199Z,1022.72
2022-10-04T02:07:13.347Z,1022.74
2022-10-04T02:08:13.323Z,1022.73
2022-10-04T02:09:13.230Z,1022.71
2022-10-04T02:10:13.115Z,1022.71
2022-10-04T02:11:13.309Z,1022.71
2022-10-04T02:12:14.436Z,1022.71
2022-10-04T02:13:13.661Z,1022.70
2022-10-04T02:14:13.950Z,1022.74
2022-10-04T02:15:13.152Z,1022.71
2022-10-04T02:16:13.351Z,1022.74
2022-10-04T02:17:13.637Z,1022.76
2022-10-04T02:18:13.689Z,1022.78
2022-10-04T02:19:13.630Z,1022.78
2022-10-04T02:20:15.228Z,1022.79
2022-10-04T02:21:13.194Z,1022.80
2022-10-04T02:22:13.222Z,1022.79
2022-10-04T02:23:13.348Z,1022.77
2022-10-04T02:24:13.504Z,1022.72
2022-10-04T02:25:13.702Z,1022.68
2022-10-04T02:26:13.702Z,1022.68
2022-10-04T02:27:13.775Z,1022.61
2022-10-04T02:28:14.097Z,1022.62
2022-10-04T02:29:13.133Z,1022.61
2022-10-04T02:30:13.067Z,1022.59
2022-10-04T02:31:12.993Z,1022.57
2022-10-04T02:32:13.148Z,1022.55
2022-10-04T02:33:13.098Z,1022.53
2022-10-04T02:34:13.476Z,1022.53
2022-10-04T02:35:13.358Z,1022.56
2022-10-04T02:36:13.501Z,1022.51
2022-10-04T02:37:13.489Z,1022.49
2022-10-04T02:38:13.398Z,1022.49
2022-10-04T02:39:13.537Z,1022.48
2022-10-04T02:40:13.466Z,1022.45
2022-10-04T02:41:13.441Z,1022.44
2022-10-04T02:42:13.669Z,1022.43
2022-10-04T02:43:13.939Z,1022.36
2022-10-04T02:44:13.096Z,1022.37
2022-10-04T02:45:13.332Z,1022.35
2022-10-04T02:46:13.807Z,1022.34
2022-10-04T02:47:13.734Z,1022.33
2022-10-04T02:48:13.685Z,1022.29
2022-10-04T02:49:13.606Z,1022.31
2022-10-04T02:50:13.639Z,1022.29
2022-10-04T02:51:13.733Z,1022.28
2022-10-04T02:52:13.668Z,1022.28
2022-10-04T02:53:13.712Z,1022.26
2022-10-04T02:54:13.816Z,1022.26
2022-10-04T02:55:13.943Z,1022.32
2022-10-04T02:56:12.805Z,1022.32
2022-10-04T02:57:13.741Z,1022.31
2022-10-04T02:58:13.950Z,1022.37
2022-10-04T02:59:12.946Z,1022.36
2022-10-04T03:00:12.884Z,1022.29
2022-10-04T03:01:13.973Z,1022.28
2022-10-04T03:02:12.988Z,1022.28
2022-10-04T03:03:12.937Z,1022.33
2022-10-04T03:04:12.779Z,1022.31
2022-10-04T03:05:13.622Z,1022.31
2022-10-04T03:06:13.611Z,1022.32
2022-10-04T03:07:13.524Z,1022.28
2022-10-04T03:08:13.461Z,1022.28
2022-10-04T03:09:13.359Z,1022.27
2022-10-04T03:10:13.367Z,1022.28
2022-10-04T03:11:13.270Z,1022.30
2022-10-04T03:12:13.192Z,1022.33
2022-10-04T03:13:13.372Z,1022.30
2022-10-04T03:14:13.240Z,1022.34
2022-10-04T03:15:13.267Z,1022.34
2022-10-04T03:16:13.611Z,1022.35
2022-10-04T03:17:13.606Z,1022.33
2022-10-04T03:18:13.609Z,1022.32
2022-10-04T03:19:13.500Z,1022.30
2022-10-04T03:20:13.396Z,1022.30
2022-10-04T03:21:13.601Z,1022.31
2022-10-04T03:22:13.630Z,1022.29
2022-10-04T03:23:13.771Z,1022.31
2022-10-04T03:24:13.717Z,1022.31
2022-10-04T03:25:13.878Z,1022.34
2022-10-04T03:26:14.028Z,1022.32
2022-10-04T03:27:13.022Z,1022.32
2022-10-04T03:28:13.002Z,1022.27
2022-10-04T03:29:13.287Z,1022.25
2022-10-04T03:30:13.557Z,1022.27
2022-10-04T03:31:13.789Z,1022.26
2022-10-04T03:32:13.798Z,1022.22
2022-10-04T03:33:13.933Z,1022.19
2022-10-04T03:34:13.296Z,1022.18
2022-10-04T03:35:13.131Z,1022.19
2022-10-04T03:36:13.080Z,1022.17
2022-10-04T03:37:13.178Z,1022.17
2022-10-04T03:38:13.733Z,1022.18
2022-10-04T03:39:13.632Z,1022.15
2022-10-04T03:40:13.851Z,1022.14
2022-10-04T03:41:14.028Z,1022.15
2022-10-04T03:42:12.883Z,1022.16
2022-10-04T03:43:13.121Z,1022.16
2022-10-04T03:44:13.225Z,1022.15
2022-10-04T03:45:13.198Z,1022.13
2022-10-04T03:46:13.159Z,1022.11
2022-10-04T03:47:13.189Z,1022.13
2022-10-04T03:48:13.052Z,1022.10
2022-10-04T03:49:13.036Z,1022.07
2022-10-04T03:50:13.055Z,1022.02
2022-10-04T03:51:13.220Z,1022.05
2022-10-04T03:52:13.102Z,1022.00
2022-10-04T03:53:13.121Z,1021.98
2022-10-04T03:54:13.265Z,1022.03
2022-10-04T03:55:13.210Z,1022.01
2022-10-04T03:56:13.113Z,1022.04
2022-10-04T03:57:12.948Z,1022.03
2022-10-04T03:58:13.327Z,1022.02
2022-10-04T03:59:13.555Z,1022.00
2022-10-04T04:00:13.492Z,1022.00
2022-10-04T04:01:13.696Z,1022.00
2022-10-04T04:02:13.743Z,1022.02
2022-10-04T04:03:13.698Z,1021.99
2022-10-04T04:04:13.722Z,1022.01
2022-10-04T04:05:13.785Z,1022.00
2022-10-04T04:06:13.700Z,1022.00
2022-10-04T04:07:13.596Z,1021.96
2022-10-04T04:08:13.777Z,1021.97
2022-10-04T04:09:14.163Z,1021.97
2022-10-04T04:10:16.642Z,1021.99
2022-10-04T04:11:13.029Z,1022.01
2022-10-04T04:12:13.051Z,1022.03
2022-10-04T04:13:13.185Z,1022.03
2022-10-04T04:14:13.674Z,1022.06
2022-10-04T04:15:14.103Z,1022.04
2022-10-04T04:16:13.211Z,1022.04
2022-10-04T04:17:13.384Z,1022.01
2022-10-04T04:18:13.297Z,1022.05
2022-10-04T04:19:13.341Z,1021.99
2022-10-04T04:20:13.249Z,1022.02
2022-10-04T04:21:13.490Z,1021.97
2022-10-04T04:22:13.721Z,1022.03
2022-10-04T04:23:13.686Z,1022.00
2022-10-04T04:24:13.911Z,1021.99
2022-10-04T04:25:13.619Z,1022.00
2022-10-04T04:26:13.780Z,1021.98
2022-10-04T04:27:13.678Z,1021.95
2022-10-04T04:28:14.004Z,1021.94
2022-10-04T04:29:13.063Z,1021.89
2022-10-04T04:30:13.042Z,1021.89
2022-10-04T04:31:13.137Z,1021.89
2022-10-04T04:32:13.549Z,1021.85
2022-10-04T04:33:16.650Z,1021.81
2022-10-04T04:34:12.974Z,1021.82
2022-10-04T04:35:12.990Z,1021.80
2022-10-04T04:36:13.057Z,1021.80
2022-10-04T04:37:12.982Z,1021.83
2022-10-04T04:38:12.827Z,1021.82
2022-10-04T04:39:14.370Z,1021.83
2022-10-04T04:40:13.403Z,1021.83
2022-10-04T04:41:13.692Z,1021.83
2022-10-04T04:42:13.628Z,1021.82
2022-10-04T04:43:13.600Z,1021.82
2022-10-04T04:44:15.584Z,1021.84
2022-10-04T04:45:13.619Z,1021.85
2022-10-04T04:46:27.066Z,1021.82
2022-10-04T04:47:17.587Z,1021.81
2022-10-04T04:48:13.115Z,1021.81
2022-10-04T04:49:13.020Z,1021.83
2022-10-04T04:50:13.069Z,1021.84
2022-10-04T04:51:13.072Z,1021.88
2022-10-04T04:52:13.019Z,1021.84
2022-10-04T04:53:12.854Z,1021.85
2022-10-04T04:54:13.835Z,1021.83
2022-10-04T04:55:13.726Z,1021.83
2022-10-04T04:56:17.404Z,1021.79
2022-10-04T04:57:13.128Z,1021.78
2022-10-04T04:58:13.020Z,1021.77
2022-10-04T04:59:13.057Z,1021.75
2022-10-04T05:00:12.921Z,1021.75
2022-10-04T05:01:12.880Z,1021.73
2022-10-04T05:02:12.991Z,1021.72
2022-10-04T05:03:13.012Z,1021.70
2022-10-04T05:04:13.501Z,1021.69
2022-10-04T05:05:13.507Z,1021.69
2022-10-04T05:06:13.658Z,1021.64
2022-10-04T05:07:13.565Z,1021.63
2022-10-04T05:08:13.524Z,1021.61
2022-10-04T05:09:13.594Z,1021.59
2022-10-04T05:10:13.624Z,1021.58
2022-10-04T05:11:13.627Z,1021.59
2022-10-04T05:12:14.621Z,1021.55
2022-10-04T05:13:13.552Z,1021.52
2022-10-04T05:14:13.680Z,1021.47
2022-10-04T05:15:15.343Z,1021.45
2022-10-04T05:16:13.570Z,1021.45
2022-10-04T05:17:13.550Z,1021.45
2022-10-04T05:18:13.702Z,1021.44
2022-10-04T05:19:13.981Z,1021.45
2022-10-04T05:20:12.880Z,1021.50
2022-10-04T05:21:13.805Z,1021.46
2022-10-04T05:22:14.338Z,1021.50
2022-10-04T05:23:13.300Z,1021.51
2022-10-04T05:24:14.082Z,1021.57
2022-10-04T05:25:15.099Z,1021.55
2022-10-04T05:26:13.838Z,1021.55
2022-10-04T05:27:13.667Z,1021.53
2022-10-04T05:28:14.490Z,1021.53
2022-10-04T05:29:13.460Z,1021.51
2022-10-04T05:30:14.990Z,1021.53
2022-10-04T05:31:13.444Z,1021.51
2022-10-04T05:32:13.782Z,1021.46
2022-10-04T05:33:13.671Z,1021.49
2022-10-04T05:34:13.645Z,1021.50
2022-10-04T05:35:13.552Z,1021.48
2022-10-04T05:36:13.512Z,1021.49
2022-10-04T05:37:13.517Z,1021.48
2022-10-04T05:38:13.601Z,1021.45
2022-10-04T05:39:13.936Z,1021.44
2022-10-04T05:40:48.799Z,1021.42
2022-10-04T05:41:19.204Z,1021.44
2022-10-04T05:42:13.106Z,1021.48
2022-10-04T05:43:13.129Z,1021.49
2022-10-04T05:44:13.063Z,1021.52
2022-10-04T05:45:27.366Z,1021.58
2022-10-04T05:46:13.484Z,1021.60
2022-10-04T05:47:13.711Z,1021.59
2022-10-04T05:48:13.638Z,1021.63
2022-10-04T05:49:18.190Z,1021.62
2022-10-04T05:50:13.176Z,1021.64
2022-10-04T05:51:13.103Z,1021.69
2022-10-04T05:52:12.982Z,1021.68
2022-10-04T05:53:13.094Z,1021.69
2022-10-04T05:54:13.058Z,1021.71
2022-10-04T05:56:13.831Z,1021.66
2022-10-04T05:57:14.136Z,1021.64
2022-10-04T05:58:13.126Z,1021.63
2022-10-04T05:59:13.145Z,1021.62
2022-10-04T06:00:13.289Z,1021.64
2022-10-04T06:01:13.516Z,1021.61
2022-10-04T06:02:13.690Z,1021.62
2022-10-04T06:03:13.827Z,1021.58
2022-10-04T06:04:13.850Z,1021.63
2022-10-04T06:05:13.861Z,1021.64
2022-10-04T06:06:13.793Z,1021.64
2022-10-04T06:07:13.668Z,1021.64
2022-10-04T06:08:13.732Z,1021.64
2022-10-04T06:09:13.865Z,1021.59
2022-10-04T06:10:13.761Z,1021.61
2022-10-04T06:11:14.138Z,1021.64
2022-10-04T06:12:13.017Z,1021.58
2022-10-04T06:13:13.325Z,1021.62
2022-10-04T06:14:13.459Z,1021.60
2022-10-04T06:15:13.853Z,1021.58
2022-10-04T06:16:13.911Z,1021.59
2022-10-04T06:17:12.947Z,1021.62
2022-10-04T06:18:12.951Z,1021.58
2022-10-04T06:19:12.968Z,1021.56
2022-10-04T06:20:13.039Z,1021.57
2022-10-04T06:21:13.052Z,1021.57
2022-10-04T06:22:13.565Z,1021.58
2022-10-04T06:23:13.687Z,1021.62
2022-10-04T06:24:13.718Z,1021.61
2022-10-04T06:25:13.659Z,1021.57
2022-10-04T06:26:13.601Z,1021.52
2022-10-04T06:27:19.027Z,1021.54
2022-10-04T06:28:14.490Z,1021.50
2022-10-04T06:29:13.615Z,1021.48
2022-10-04T06:30:13.529Z,1021.51
2022-10-04T06:31:13.810Z,1021.52
2022-10-04T06:32:13.725Z,1021.51
2022-10-04T06:33:13.831Z,1021.58
2022-10-04T06:34:13.835Z,1021.55
2022-10-04T06:35:13.804Z,1021.58
2022-10-04T06:36:13.793Z,1021.57
2022-10-04T06:37:14.057Z,1021.61
2022-10-04T06:38:12.911Z,1021.63
2022-10-04T06:39:12.847Z,1021.61
2022-10-04T06:40:13.793Z,1021.60
2022-10-04T06:41:13.990Z,1021.60
2022-10-04T06:42:12.954Z,1021.59
2022-10-04T06:43:13.368Z,1021.61
2022-10-04T06:44:14.873Z,1021.59
2022-10-04T06:45:14.041Z,1021.61
2022-10-04T06:46:13.232Z,1021.61
2022-10-04T06:47:13.199Z,1021.62
2022-10-04T06:48:13.209Z,1021.64
2022-10-04T06:49:13.352Z,1021.63
2022-10-04T06:50:13.339Z,1021.68
2022-10-04T06:51:13.259Z,1021.69
2022-10-04T06:52:17.237Z,1021.68
2022-10-04T06:53:13.746Z,1021.67
2022-10-04T06:54:13.707Z,1021.67
2022-10-04T06:55:13.764Z,1021.68
2022-10-04T06:56:13.685Z,1021.67
2022-10-04T06:57:13.940Z,1021.68
2022-10-04T06:58:12.980Z,1021.69
2022-10-04T06:59:12.945Z,1021.69
2022-10-04T07:00:12.991Z,1021.66
2022-10-04T07:01:13.199Z,1021.64
2022-10-04T07:02:13.709Z,1021.66
2022-10-04T07:03:13.743Z,1021.68
2022-10-04T07:04:13.965Z,1021.74
2022-10-04T07:05:12.979Z,1021.70
2022-10-04T07:06:13.008Z,1021.73
2022-10-04T07:07:12.966Z,1021.73
2022-10-04T07:08:13.022Z,1021.76
2022-10-04T07:09:12.909Z,1021.79
2022-10-04T07:10:12.975Z,1021.75
2022-10-04T07:11:17.869Z,1021.77
2022-10-04T07:12:13.856Z,1021.80
2022-10-04T07:13:13.848Z,1021.81
2022-10-04T07:14:13.979Z,1021.83
2022-10-04T07:15:12.929Z,1021.83
2022-10-04T07:16:13.057Z,1021.82
2022-10-04T07:17:13.238Z,1021.83
2022-10-04T07:18:13.176Z,1021.81
2022-10-04T07:19:13.046Z,1021.85
2022-10-04T07:20:12.945Z,1021.83
2022-10-04T07:21:12.884Z,1021.85
2022-10-04T07:22:13.801Z,1021.80
2022-10-04T07:23:14.430Z,1021.85
2022-10-04T07:24:13.912Z,1021.82
2022-10-04T07:25:13.405Z,1021.82
2022-10-04T07:26:13.696Z,1021.81
2022-10-04T07:27:14.112Z,1021.82
2022-10-04T07:28:13.317Z,1021.81
2022-10-04T07:29:13.750Z,1021.83
2022-10-04T07:30:13.687Z,1021.82
2022-10-04T07:31:13.669Z,1021.84
2022-10-04T07:32:13.953Z,1021.86
2022-10-04T07:33:13.389Z,1021.81
2022-10-04T07:34:13.514Z,1021.84
2022-10-04T07:35:13.709Z,1021.86
2022-10-04T07:36:16.683Z,1021.87
2022-10-04T07:37:13.810Z,1021.89
2022-10-04T07:38:13.979Z,1021.91
2022-10-04T07:39:13.052Z,1021.90
2022-10-04T07:40:14.654Z,1021.92
2022-10-04T07:41:14.027Z,1021.94
2022-10-04T07:42:13.272Z,1021.94
2022-10-04T07:43:13.313Z,1021.94
2022-10-04T07:44:13.653Z,1021.94
2022-10-04T07:45:14.008Z,1021.94
2022-10-04T07:46:13.075Z,1021.96
2022-10-04T07:47:13.416Z,1021.91
2022-10-04T07:48:13.446Z,1021.94
2022-10-04T07:49:13.610Z,1021.93
2022-10-04T07:50:13.560Z,1021.92
2022-10-04T07:51:13.626Z,1021.95
2022-10-04T07:52:13.827Z,1021.95
2022-10-04T07:54:13.356Z,1021.93
2022-10-04T07:55:13.878Z,1021.98
2022-10-04T07:56:13.766Z,1021.98
2022-10-04T07:57:13.688Z,1021.95
2022-10-04T07:58:13.666Z,1021.98
2022-10-04T07:59:13.777Z,1021.98
2022-10-04T08:00:14.136Z,1021.99
2022-10-04T08:01:12.957Z,1022.01
2022-10-04T08:02:13.037Z,1022.01
2022-10-04T08:03:13.141Z,1022.03
2022-10-04T08:04:13.304Z,1022.01
2022-10-04T08:05:13.271Z,1021.98
2022-10-04T08:06:13.322Z,1022.00
2022-10-04T08:07:13.283Z,1022.00
2022-10-04T08:08:13.266Z,1022.00
2022-10-04T08:09:13.184Z,1022.00
2022-10-04T08:10:13.153Z,1022.01
2022-10-04T08:11:13.227Z,1022.00
2022-10-04T08:12:13.591Z,1021.98
2022-10-04T08:13:18.692Z,1021.97
2022-10-04T08:14:14.011Z,1022.00
2022-10-04T08:15:12.969Z,1021.98
2022-10-04T08:16:12.945Z,1021.99
2022-10-04T08:17:15.567Z,1021.96
2022-10-04T08:18:13.073Z,1021.98
2022-10-04T08:19:13.130Z,1022.00
2022-10-04T08:20:13.049Z,1021.98
2022-10-04T08:21:13.010Z,1021.98
2022-10-04T08:22:13.166Z,1021.98
2022-10-04T08:23:13.229Z,1021.94
2022-10-04T08:24:13.158Z,1021.98
2022-10-04T08:25:13.251Z,1021.97
2022-10-04T08:26:13.167Z,1021.95
2022-10-04T08:27:13.317Z,1021.99
2022-10-04T08:28:13.668Z,1021.95
2022-10-04T08:29:13.535Z,1021.93
2022-10-04T08:30:13.431Z,1021.94
2022-10-04T08:31:13.411Z,1021.94
2022-10-04T08:32:13.450Z,1021.93
2022-10-04T08:33:18.314Z,1021.95
2022-10-04T08:34:13.228Z,1021.94
2022-10-04T08:35:13.198Z,1021.97
2022-10-04T08:36:13.365Z,1021.98
2022-10-04T08:37:13.448Z,1021.97
2022-10-04T08:38:13.558Z,1021.97
2022-10-04T08:39:13.423Z,1021.95
2022-10-04T08:40:13.603Z,1021.95
2022-10-04T08:41:15.115Z,1021.92
2022-10-04T08:42:13.062Z,1021.93
2022-10-04T08:43:13.226Z,1021.95
2022-10-04T08:44:13.489Z,1021.99
2022-10-04T08:45:13.333Z,1021.99
2022-10-04T08:46:13.560Z,1021.98
2022-10-04T08:47:13.698Z,1021.98
2022-10-04T08:48:13.633Z,1022.00
2022-10-04T08:49:14.779Z,1021.97
2022-10-04T08:50:13.913Z,1021.94
2022-10-04T08:51:13.065Z,1022.01
2022-10-04T08:52:13.368Z,1021.93
2022-10-04T08:53:18.350Z,1021.91
2022-10-04T08:54:13.255Z,1021.95
2022-10-04T08:55:13.299Z,1021.91
2022-10-04T08:56:13.903Z,1021.90
2022-10-04T08:57:16.064Z,1021.89
2022-10-04T08:58:13.534Z,1021.93
2022-10-04T08:59:13.616Z,1021.89
2022-10-04T09:00:13.541Z,1021.89
2022-10-04T09:01:13.675Z,1021.90
2022-10-04T09:02:14.438Z,1021.95
2022-10-04T09:03:13.523Z,1021.92
2022-10-04T09:04:13.905Z,1021.89
2022-10-04T09:05:13.455Z,1021.90
2022-10-04T09:06:23.632Z,1021.82
2022-10-04T09:07:13.976Z,1021.82
2022-10-04T09:08:12.958Z,1021.87
2022-10-04T09:09:13.499Z,1021.90
2022-10-04T09:10:13.439Z,1021.92
2022-10-04T09:11:13.382Z,1021.86
2022-10-04T09:12:13.439Z,1021.89
2022-10-04T09:13:13.305Z,1021.88
2022-10-04T09:14:13.262Z,1021.90
2022-10-04T09:15:13.179Z,1021.80
2022-10-04T09:16:13.650Z,1021.82
2022-10-04T09:17:15.604Z,1021.81
2022-10-04T09:18:13.404Z,1021.77
2022-10-04T09:19:13.544Z,1021.74
2022-10-04T09:20:37.145Z,1021.71
2022-10-04T09:21:13.570Z,1021.70
2022-10-04T09:22:13.714Z,1021.72
2022-10-04T09:23:13.736Z,1021.73
2022-10-04T09:24:13.617Z,1021.67
2022-10-04T09:25:14.062Z,1021.67
2022-10-04T09:26:12.970Z,1021.62
2022-10-04T09:27:13.352Z,1021.61
2022-10-04T09:28:13.438Z,1021.63
2022-10-04T09:29:18.594Z,1021.63
2022-10-04T09:30:13.758Z,1021.64
2022-10-04T09:31:14.131Z,1021.65
2022-10-04T09:32:13.316Z,1021.65
2022-10-04T09:33:13.777Z,1021.60
2022-10-04T09:34:13.636Z,1021.55
2022-10-04T09:35:13.920Z,1021.61
2022-10-04T09:36:13.015Z,1021.57
2022-10-04T09:37:12.994Z,1021.55
2022-10-04T09:38:13.249Z,1021.53
2022-10-04T09:39:29.581Z,1021.50
2022-10-04T09:40:13.561Z,1021.50
2022-10-04T09:41:14.845Z,1021.50
2022-10-04T09:42:14.089Z,1021.51
2022-10-04T09:43:13.281Z,1021.51
2022-10-04T09:44:13.437Z,1021.48
2022-10-04T09:45:13.666Z,1021.50
2022-10-04T09:46:13.707Z,1021.54
2022-10-04T09:47:14.445Z,1021.47
2022-10-04T09:48:13.524Z,1021.46
2022-10-04T09:49:13.488Z,1021.53
2022-10-04T09:50:13.796Z,1021.54
2022-10-04T09:51:13.725Z,1021.51
2022-10-04T09:52:13.702Z,1021.51
2022-10-04T09:53:13.875Z,1021.46
2022-10-04T09:54:14.193Z,1021.48
2022-10-04T09:55:13.161Z,1021.50
2022-10-04T09:56:13.523Z,1021.46
2022-10-04T09:57:13.823Z,1021.44
2022-10-04T09:58:19.064Z,1021.46
2022-10-04T09:59:13.639Z,1021.44
2022-10-04T10:00:15.086Z,1021.47
2022-10-04T10:01:13.506Z,1021.39
2022-10-04T10:02:13.499Z,1021.41
2022-10-04T10:03:15.783Z,1021.39
2022-10-04T10:04:13.273Z,1021.39
2022-10-04T10:05:13.340Z,1021.44
2022-10-04T10:06:13.302Z,1021.45
2022-10-04T10:07:13.340Z,1021.42
2022-10-04T10:09:23.357Z,1021.45
2022-10-04T10:10:13.467Z,1021.44
2022-10-04T10:11:13.446Z,1021.49
2022-10-04T10:12:13.683Z,1021.45
2022-10-04T10:13:13.690Z,1021.47
2022-10-04T10:14:13.683Z,1021.54
2022-10-04T10:15:13.799Z,1021.48
2022-10-04T10:16:13.825Z,1021.49
2022-10-04T10:17:13.860Z,1021.49
2022-10-04T10:18:13.753Z,1021.51
2022-10-04T10:19:14.189Z,1021.49
2022-10-04T10:20:13.137Z,1021.48
2022-10-04T10:21:13.351Z,1021.55
2022-10-04T10:22:13.202Z,1021.47
2022-10-04T10:23:15.275Z,1021.52
2022-10-04T10:24:13.184Z,1021.51
2022-10-04T10:25:13.259Z,1021.55
2022-10-04T10:26:14.422Z,1021.54
2022-10-04T10:27:13.377Z,1021.44
2022-10-04T10:28:13.321Z,1021.50
2022-10-04T10:29:13.174Z,1021.45
2022-10-04T10:30:13.068Z,1021.44
2022-10-04T10:31:13.176Z,1021.48
2022-10-04T10:32:13.186Z,1021.45
2022-10-04T10:33:13.145Z,1021.38
2022-10-04T10:34:13.261Z,1021.44
2022-10-04T10:35:14.777Z,1021.38
2022-10-04T10:36:14.166Z,1021.36
2022-10-04T10:37:15.261Z,1021.42
2022-10-04T10:38:13.492Z,1021.39
2022-10-04T10:39:13.839Z,1021.39
2022-10-04T10:40:13.942Z,1021.32
2022-10-04T10:41:13.266Z,1021.34
2022-10-04T10:42:13.259Z,1021.31
2022-10-04T10:43:13.453Z,1021.37
2022-10-04T10:44:15.094Z,1021.36
2022-10-04T10:45:13.028Z,1021.38
2022-10-04T10:46:13.170Z,1021.36
2022-10-04T10:47:13.067Z,1021.31
2022-10-04T10:48:13.093Z,1021.33
2022-10-04T10:49:13.062Z,1021.34
2022-10-04T10:50:13.180Z,1021.32
2022-10-04T10:51:18.488Z,1021.29
2022-10-04T10:52:13.697Z,1021.32
2022-10-04T10:53:13.875Z,1021.30
2022-10-04T10:54:14.604Z,1021.28
2022-10-04T10:55:15.440Z,1021.31
2022-10-04T10:56:13.483Z,1021.31
2022-10-04T10:57:13.397Z,1021.34
2022-10-04T10:58:16.111Z,1021.32
2022-10-04T10:59:14.574Z,1021.38
2022-10-04T11:00:13.673Z,1021.33
2022-10-04T11:01:14.084Z,1021.30
2022-10-04T11:02:15.514Z,1021.32
2022-10-04T11:03:23.736Z,1021.31
2022-10-04T11:04:14.938Z,1021.29
2022-10-04T11:05:12.866Z,1021.28
2022-10-04T11:06:15.469Z,1021.25
2022-10-04T11:07:13.627Z,1021.25
2022-10-04T11:08:13.744Z,1021.26
2022-10-04T11:09:13.869Z,1021.27
2022-10-04T11:10:13.952Z,1021.24
2022-10-04T11:11:15.839Z,1021.24
2022-10-04T11:12:16.570Z,1021.25
2022-10-04T11:13:16.403Z,1021.24
2022-10-04T11:14:15.040Z,1021.20
2022-10-04T11:15:12.892Z,1021.23
2022-10-04T11:16:15.989Z,1021.14
2022-10-04T11:17:13.918Z,1021.16
2022-10-04T11:18:14.578Z,1021.18
2022-10-04T11:19:15.202Z,1021.21
2022-10-04T11:20:17.831Z,1021.17
2022-10-04T11:21:13.221Z,1021.18
2022-10-04T11:22:14.069Z,1021.24
2022-10-04T11:23:16.887Z,1021.19
2022-10-04T11:24:16.965Z,1021.19
2022-10-04T11:25:13.246Z,1021.19
2022-10-04T11:26:17.507Z,1021.17
2022-10-04T11:27:13.559Z,1021.19
2022-10-04T11:28:15.289Z,1021.14
2022-10-04T11:29:18.142Z,1021.18
2022-10-04T11:30:17.357Z,1021.17
2022-10-04T11:31:18.237Z,1021.07
2022-10-04T11:32:15.095Z,1021.07
2022-10-04T11:33:16.927Z,1021.03
2022-10-04T11:34:16.867Z,1021.05
2022-10-04T11:35:14.444Z,1020.95
2022-10-04T11:36:17.935Z,1020.98
2022-10-04T11:37:16.025Z,1021.02
2022-10-04T11:38:13.036Z,1020.94
2022-10-04T11:39:16.205Z,1020.91
2022-10-04T11:40:16.150Z,1020.91
2022-10-04T11:41:16.637Z,1020.96
2022-10-04T11:42:14.453Z,1020.97
2022-10-04T11:43:13.613Z,1021.04
2022-10-04T11:44:19.185Z,1021.02
2022-10-04T11:45:17.688Z,1020.93
2022-10-04T11:46:19.086Z,1021.02
2022-10-04T11:47:16.238Z,1020.95
2022-10-04T11:48:14.858Z,1020.93
2022-10-04T11:49:15.552Z,1021.00
2022-10-04T11:50:19.079Z,1020.92
2022-10-04T11:51:16.059Z,1020.96
2022-10-04T11:52:12.928Z,1020.89
2022-10-04T11:53:16.345Z,1020.91
2022-10-04T11:54:15.925Z,1020.90
2022-10-04T11:55:17.497Z,1020.93
2022-10-04T11:56:14.088Z,1020.95
2022-10-04T11:57:18.656Z,1020.91
2022-10-04T11:58:19.314Z,1020.84
2022-10-04T11:59:18.290Z,1020.91
2022-10-04T12:00:19.320Z,1020.87
2022-10-04T12:01:17.812Z,1020.84
2022-10-04T12:02:17.890Z,1020.83
2022-10-04T12:03:17.387Z,1020.79
2022-10-04T12:04:18.153Z,1020.80
2022-10-04T12:05:17.846Z,1020.78
2022-10-04T12:06:17.902Z,1020.79
2022-10-04T12:07:17.841Z,1020.75
2022-10-04T12:08:20.104Z,1020.74